sensor_id;sensor_type;location;lat;lon;timestamp;pressure;altitude;pressure_sealevel;temperature;humidity
60820;BME280;46641;48.904;9.126;2022-09-24T00:00:17;98315.00;;;17.66;52.52
60820;BME280;46641;48.904;9.126;2022-09-24T00:05:08;98325.75;;;17.64;52.43
60820;BME280;46641;48.904;9.126;2022-09-24T00:09:58;98308.66;;;17.60;52.77
60820;BME280;46641;48.904;9.126;2022-09-24T00:14:48;98303.97;;;17.56;52.75
60820;BME280;46641;48.904;9.126;2022-09-24T00:19:39;98299.47;;;17.56;52.70
60820;BME280;46641;48.904;9.126;2022-09-24T00:24:29;98293.75;;;17.52;52.91
60820;BME280;46641;48.904;9.126;2022-09-24T00:29:38;98296.81;;;17.49;53.47
60820;BME280;46641;48.904;9.126;2022-09-24T00:34:29;98283.97;;;17.46;53.25
60820;BME280;46641;48.904;9.126;2022-09-24T00:39:19;98280.91;;;17.43;53.35
60820;BME280;46641;48.904;9.126;2022-09-24T00:49:34;98289.44;;;17.45;53.33
60820;BME280;46641;48.904;9.126;2022-09-24T00:54:26;98277.88;;;17.46;53.23
60820;BME280;46641;48.904;9.126;2022-09-24T00:59:20;98266.44;;;17.39;53.74
60820;BME280;46641;48.904;9.126;2022-09-24T01:04:13;98258.50;;;17.39;54.00
60820;BME280;46641;48.904;9.126;2022-09-24T01:09:05;98253.41;;;17.37;54.13
60820;BME280;46641;48.904;9.126;2022-09-24T01:19:31;98252.34;;;17.32;54.18
60820;BME280;46641;48.904;9.126;2022-09-24T01:24:51;98244.22;;;17.33;54.16
60820;BME280;46641;48.904;9.126;2022-09-24T01:34:43;98234.22;;;17.28;54.39
60820;BME280;46641;48.904;9.126;2022-09-24T01:39:36;98227.69;;;17.24;54.23
60820;BME280;46641;48.904;9.126;2022-09-24T01:44:27;98224.84;;;17.19;54.64
60820;BME280;46641;48.904;9.126;2022-09-24T01:49:18;98210.19;;;17.17;54.50
60820;BME280;46641;48.904;9.126;2022-09-24T01:54:15;98222.59;;;17.16;54.15
60820;BME280;46641;48.904;9.126;2022-09-24T01:59:16;98218.94;;;17.17;54.29
60820;BME280;46641;48.904;9.126;2022-09-24T02:04:14;98210.16;;;17.10;54.63
60820;BME280;46641;48.904;9.126;2022-09-24T02:09:05;98211.97;;;17.03;54.45
60820;BME280;46641;48.904;9.126;2022-09-24T02:14:16;98196.47;;;17.00;54.50
60820;BME280;46641;48.904;9.126;2022-09-24T02:19:10;98203.78;;;16.98;54.82
60820;BME280;46641;48.904;9.126;2022-09-24T02:24:16;98200.72;;;16.94;54.84
60820;BME280;46641;48.904;9.126;2022-09-24T02:29:08;98199.50;;;16.97;54.58
60820;BME280;46641;48.904;9.126;2022-09-24T02:34:02;98192.38;;;16.91;55.33
60820;BME280;46641;48.904;9.126;2022-09-24T02:39:09;98195.00;;;16.91;55.19
60820;BME280;46641;48.904;9.126;2022-09-24T02:44:00;98184.81;;;16.88;55.18
60820;BME280;46641;48.904;9.126;2022-09-24T02:48:50;98175.88;;;16.89;55.32
60820;BME280;46641;48.904;9.126;2022-09-24T02:53:41;98184.81;;;16.88;55.94
60820;BME280;46641;48.904;9.126;2022-09-24T02:58:31;98200.28;;;16.91;55.55
60820;BME280;46641;48.904;9.126;2022-09-24T03:03:25;98201.25;;;16.83;55.52
60820;BME280;46641;48.904;9.126;2022-09-24T03:08:15;98200.81;;;16.79;55.70
60820;BME280;46641;48.904;9.126;2022-09-24T03:13:06;98191.69;;;16.82;55.58
60820;BME280;46641;48.904;9.126;2022-09-24T03:17:56;98175.84;;;16.82;55.88
60820;BME280;46641;48.904;9.126;2022-09-24T03:22:50;98174.59;;;16.78;55.77
60820;BME280;46641;48.904;9.126;2022-09-24T03:27:41;98176.78;;;16.74;56.26
60820;BME280;46641;48.904;9.126;2022-09-24T03:32:31;98164.22;;;16.76;56.52
60820;BME280;46641;48.904;9.126;2022-09-24T03:37:22;98155.03;;;16.72;56.50
60820;BME280;46641;48.904;9.126;2022-09-24T03:42:13;98171.38;;;16.82;55.98
60820;BME280;46641;48.904;9.126;2022-09-24T03:47:03;98170.97;;;16.86;56.19
60820;BME280;46641;48.904;9.126;2022-09-24T03:51:53;98164.47;;;16.81;56.16
60820;BME280;46641;48.904;9.126;2022-09-24T03:56:43;98169.75;;;16.81;56.24
60820;BME280;46641;48.904;9.126;2022-09-24T04:01:34;98153.28;;;16.86;55.71
60820;BME280;46641;48.904;9.126;2022-09-24T04:06:26;98168.34;;;16.86;56.13
60820;BME280;46641;48.904;9.126;2022-09-24T04:11:16;98160.31;;;16.72;56.19
60820;BME280;46641;48.904;9.126;2022-09-24T04:16:06;98159.88;;;16.69;56.28
60820;BME280;46641;48.904;9.126;2022-09-24T04:21:00;98148.88;;;16.65;56.64
60820;BME280;46641;48.904;9.126;2022-09-24T04:25:50;98134.25;;;16.63;56.87
60820;BME280;46641;48.904;9.126;2022-09-24T04:30:40;98155.38;;;16.63;56.95
60820;BME280;46641;48.904;9.126;2022-09-24T04:35:32;98154.59;;;16.69;56.69
60820;BME280;46641;48.904;9.126;2022-09-24T04:40:25;98158.81;;;16.63;56.92
60820;BME280;46641;48.904;9.126;2022-09-24T04:45:15;98147.28;;;16.64;56.96
60820;BME280;46641;48.904;9.126;2022-09-24T04:50:10;98136.88;;;16.63;56.92
60820;BME280;46641;48.904;9.126;2022-09-24T04:55:00;98138.31;;;16.65;56.67
60820;BME280;46641;48.904;9.126;2022-09-24T04:59:51;98136.31;;;16.67;56.72
60820;BME280;46641;48.904;9.126;2022-09-24T05:04:41;98129.59;;;16.65;56.80
60820;BME280;46641;48.904;9.126;2022-09-24T05:09:32;98134.44;;;16.61;57.16
60820;BME280;46641;48.904;9.126;2022-09-24T05:14:23;98128.75;;;16.57;56.99
60820;BME280;46641;48.904;9.126;2022-09-24T05:19:13;98134.84;;;16.58;57.20
60820;BME280;46641;48.904;9.126;2022-09-24T05:24:04;98144.41;;;16.66;56.80
60820;BME280;46641;48.904;9.126;2022-09-24T05:28:54;98148.88;;;16.65;56.95
60820;BME280;46641;48.904;9.126;2022-09-24T05:33:44;98155.63;;;16.68;56.81
60820;BME280;46641;48.904;9.126;2022-09-24T05:38:35;98149.53;;;16.67;57.09
60820;BME280;46641;48.904;9.126;2022-09-24T05:43:25;98156.56;;;16.60;56.87
60820;BME280;46641;48.904;9.126;2022-09-24T05:48:16;98156.97;;;16.57;57.18
60820;BME280;46641;48.904;9.126;2022-09-24T05:53:07;98171.56;;;16.53;57.14
60820;BME280;46641;48.904;9.126;2022-09-24T05:58:05;98168.09;;;16.46;57.71
60820;BME280;46641;48.904;9.126;2022-09-24T06:03:10;98176.97;;;15.88;59.99
60820;BME280;46641;48.904;9.126;2022-09-24T06:08:02;98173.28;;;16.32;58.34
60820;BME280;46641;48.904;9.126;2022-09-24T06:12:53;98167.91;;;16.54;57.54
60820;BME280;46641;48.904;9.126;2022-09-24T06:17:43;98157.84;;;16.64;56.83
60820;BME280;46641;48.904;9.126;2022-09-24T06:22:33;98170.25;;;16.70;56.92
60820;BME280;46641;48.904;9.126;2022-09-24T06:27:23;98167.22;;;16.73;56.63
60820;BME280;46641;48.904;9.126;2022-09-24T06:32:14;98179.44;;;16.74;56.65
60820;BME280;46641;48.904;9.126;2022-09-24T06:37:04;98195.53;;;16.79;56.49
60820;BME280;46641;48.904;9.126;2022-09-24T06:41:54;98196.81;;;16.84;56.17
60820;BME280;46641;48.904;9.126;2022-09-24T06:46:45;98200.69;;;16.88;56.14
60820;BME280;46641;48.904;9.126;2022-09-24T06:51:35;98196.84;;;16.90;55.87
60820;BME280;46641;48.904;9.126;2022-09-24T06:56:26;98198.25;;;16.93;56.03
60820;BME280;46641;48.904;9.126;2022-09-24T07:01:16;98206.00;;;16.94;56.06
60820;BME280;46641;48.904;9.126;2022-09-24T07:06:07;98206.59;;;16.96;55.92
60820;BME280;46641;48.904;9.126;2022-09-24T07:10:57;98188.94;;;16.97;55.74
60820;BME280;46641;48.904;9.126;2022-09-24T07:15:50;98199.72;;;17.02;55.84
60820;BME280;46641;48.904;9.126;2022-09-24T07:20:41;98211.97;;;17.03;55.69
60820;BME280;46641;48.904;9.126;2022-09-24T07:25:31;98214.59;;;17.03;55.74
60820;BME280;46641;48.904;9.126;2022-09-24T07:30:22;98222.13;;;17.06;55.56
60820;BME280;46641;48.904;9.126;2022-09-24T07:35:12;98223.94;;;17.05;55.39
60820;BME280;46641;48.904;9.126;2022-09-24T07:40:03;98233.94;;;17.10;55.40
60820;BME280;46641;48.904;9.126;2022-09-24T07:44:53;98237.00;;;17.14;55.23
60820;BME280;46641;48.904;9.126;2022-09-24T07:49:45;98245.56;;;17.16;55.33
60820;BME280;46641;48.904;9.126;2022-09-24T07:54:36;98242.72;;;17.17;55.40
60820;BME280;46641;48.904;9.126;2022-09-24T07:59:27;98241.53;;;17.20;55.12
60820;BME280;46641;48.904;9.126;2022-09-24T08:04:18;98236.66;;;17.23;55.10
60820;BME280;46641;48.904;9.126;2022-09-24T08:09:08;98242.53;;;17.25;55.04
60820;BME280;46641;48.904;9.126;2022-09-24T08:13:58;98239.72;;;17.27;55.02
60820;BME280;46641;48.904;9.126;2022-09-24T08:18:49;98250.50;;;17.32;54.88
60820;BME280;46641;48.904;9.126;2022-09-24T08:23:41;98249.31;;;17.35;55.03
60820;BME280;46641;48.904;9.126;2022-09-24T08:28:32;98246.28;;;17.38;54.90
60820;BME280;46641;48.904;9.126;2022-09-24T08:33:23;98239.56;;;17.42;54.76
60820;BME280;46641;48.904;9.126;2022-09-24T08:38:13;98234.91;;;17.44;54.76
60820;BME280;46641;48.904;9.126;2022-09-24T08:43:35;98238.97;;;17.46;55.11
60820;BME280;46641;48.904;9.126;2022-09-24T08:48:32;98236.97;;;17.48;55.43
60820;BME280;46641;48.904;9.126;2022-09-24T09:13:30;98243.31;;;17.67;56.30
60820;BME280;46641;48.904;9.126;2022-09-24T09:18:33;98252.13;;;17.74;56.23
60820;BME280;46641;48.904;9.126;2022-09-24T09:23:35;98258.84;;;17.84;56.21
60820;BME280;46641;48.904;9.126;2022-09-24T09:28:28;98255.00;;;17.86;55.65
60820;BME280;46641;48.904;9.126;2022-09-24T09:43:42;98243.44;;;18.01;55.57
60820;BME280;46641;48.904;9.126;2022-09-24T09:48:43;98233.25;;;18.04;55.33
60820;BME280;46641;48.904;9.126;2022-09-24T09:53:34;98246.69;;;18.16;55.15
60820;BME280;46641;48.904;9.126;2022-09-24T09:58:26;98243.06;;;18.24;55.10
60820;BME280;46641;48.904;9.126;2022-09-24T10:03:25;98226.13;;;18.31;55.20
60820;BME280;46641;48.904;9.126;2022-09-24T10:08:24;98225.09;;;18.39;55.00
60820;BME280;46641;48.904;9.126;2022-09-24T10:13:14;98232.84;;;18.40;54.87
60820;BME280;46641;48.904;9.126;2022-09-24T10:18:05;98238.56;;;18.44;54.50
60820;BME280;46641;48.904;9.126;2022-09-24T10:22:57;98236.13;;;18.49;54.80
60820;BME280;46641;48.904;9.126;2022-09-24T10:27:51;98234.88;;;18.52;54.81
60820;BME280;46641;48.904;9.126;2022-09-24T10:32:42;98236.31;;;18.54;54.78
60820;BME280;46641;48.904;9.126;2022-09-24T10:37:33;98242.81;;;18.58;55.02
60820;BME280;46641;48.904;9.126;2022-09-24T10:42:26;98235.28;;;18.62;54.81
60820;BME280;46641;48.904;9.126;2022-09-24T10:47:24;98232.81;;;18.67;54.98
60820;BME280;46641;48.904;9.126;2022-09-24T10:52:53;98242.22;;;18.69;55.14
60820;BME280;46641;48.904;9.126;2022-09-24T11:03:40;98232.41;;;18.70;55.18
60820;BME280;46641;48.904;9.126;2022-09-24T11:29:04;98227.31;;;18.88;54.66
60820;BME280;46641;48.904;9.126;2022-09-24T11:39:04;98221.16;;;18.95;54.46
60820;BME280;46641;48.904;9.126;2022-09-24T11:49:42;98214.41;;;19.05;53.97
60820;BME280;46641;48.904;9.126;2022-09-24T12:00:05;98210.69;;;19.20;53.82
60820;BME280;46641;48.904;9.126;2022-09-24T12:05:04;98199.03;;;19.27;53.71
60820;BME280;46641;48.904;9.126;2022-09-24T12:10:45;98197.59;;;19.31;53.87
60820;BME280;46641;48.904;9.126;2022-09-24T12:15:46;98194.28;;;19.36;53.96
60820;BME280;46641;48.904;9.126;2022-09-24T12:20:50;98197.13;;;19.41;54.05
60820;BME280;46641;48.904;9.126;2022-09-24T12:25:45;98192.41;;;19.43;53.34
60820;BME280;46641;48.904;9.126;2022-09-24T12:35:59;98203.63;;;19.45;53.61
60820;BME280;46641;48.904;9.126;2022-09-24T12:41:31;98200.78;;;19.47;53.38
60820;BME280;46641;48.904;9.126;2022-09-24T12:46:25;98197.09;;;19.48;53.54
60820;BME280;46641;48.904;9.126;2022-09-24T12:51:19;98190.16;;;19.47;53.16
60820;BME280;46641;48.904;9.126;2022-09-24T12:56:11;98188.91;;;19.49;53.06
60820;BME280;46641;48.904;9.126;2022-09-24T13:01:31;98174.00;;;19.48;53.95
60820;BME280;46641;48.904;9.126;2022-09-24T13:06:30;98180.94;;;19.49;53.85
60820;BME280;46641;48.904;9.126;2022-09-24T13:11:27;98180.34;;;19.47;53.79
60820;BME280;46641;48.904;9.126;2022-09-24T13:16:19;98168.09;;;19.46;53.71
60820;BME280;46641;48.904;9.126;2022-09-24T13:21:20;98169.94;;;19.46;54.49
60820;BME280;46641;48.904;9.126;2022-09-24T13:26:32;98162.78;;;19.46;54.24
60820;BME280;46641;48.904;9.126;2022-09-24T13:46:33;98160.97;;;19.47;53.70
60820;BME280;46641;48.904;9.126;2022-09-24T13:51:27;98165.00;;;19.49;53.64
60820;BME280;46641;48.904;9.126;2022-09-24T13:56:19;98154.19;;;19.51;53.74
60820;BME280;46641;48.904;9.126;2022-09-24T14:01:19;98153.41;;;19.50;54.11
60820;BME280;46641;48.904;9.126;2022-09-24T14:06:13;98150.50;;;19.52;53.97
60820;BME280;46641;48.904;9.126;2022-09-24T14:11:10;98154.41;;;19.49;54.15
60820;BME280;46641;48.904;9.126;2022-09-24T14:16:09;98143.59;;;19.51;55.34
60820;BME280;46641;48.904;9.126;2022-09-24T14:21:10;98143.16;;;19.54;56.02
60820;BME280;46641;48.904;9.126;2022-09-24T14:26:03;98145.00;;;19.53;54.97
60820;BME280;46641;48.904;9.126;2022-09-24T14:30:54;98147.66;;;19.53;54.43
60820;BME280;46641;48.904;9.126;2022-09-24T14:35:47;98149.88;;;19.56;54.12
60820;BME280;46641;48.904;9.126;2022-09-24T14:40:45;98145.16;;;19.58;54.66
60820;BME280;46641;48.904;9.126;2022-09-24T14:45:36;98144.34;;;19.58;53.73
60820;BME280;46641;48.904;9.126;2022-09-24T14:50:36;98137.00;;;19.60;54.34
60820;BME280;46641;48.904;9.126;2022-09-24T14:55:38;98135.34;;;19.59;55.04
60820;BME280;46641;48.904;9.126;2022-09-24T15:00:34;98135.16;;;19.60;53.69
60820;BME280;46641;48.904;9.126;2022-09-24T15:05:27;98139.22;;;19.63;53.35
60820;BME280;46641;48.904;9.126;2022-09-24T15:10:20;98136.56;;;19.63;53.49
60820;BME280;46641;48.904;9.126;2022-09-24T15:20:08;98131.66;;;19.67;53.53
60820;BME280;46641;48.904;9.126;2022-09-24T15:24:59;98128.59;;;19.70;53.24
60820;BME280;46641;48.904;9.126;2022-09-24T15:29:49;98124.88;;;19.71;52.88
60820;BME280;46641;48.904;9.126;2022-09-24T15:34:40;98118.34;;;19.73;53.14
60820;BME280;46641;48.904;9.126;2022-09-24T15:39:30;98116.50;;;19.74;52.94
60820;BME280;46641;48.904;9.126;2022-09-24T15:44:23;98113.59;;;19.75;52.99
60820;BME280;46641;48.904;9.126;2022-09-24T15:49:14;98120.78;;;19.75;52.39
60820;BME280;46641;48.904;9.126;2022-09-24T15:54:05;98116.06;;;19.77;52.56
60820;BME280;46641;48.904;9.126;2022-09-24T15:58:57;98117.69;;;19.78;52.64
60820;BME280;46641;48.904;9.126;2022-09-24T16:03:47;98114.22;;;19.77;52.31
60820;BME280;46641;48.904;9.126;2022-09-24T16:08:37;98115.03;;;19.78;52.60
60820;BME280;46641;48.904;9.126;2022-09-24T16:13:28;98119.28;;;19.79;52.64
60820;BME280;46641;48.904;9.126;2022-09-24T16:18:18;98116.66;;;19.79;52.50
60820;BME280;46641;48.904;9.126;2022-09-24T16:23:13;98114.22;;;19.77;52.48
60820;BME280;46641;48.904;9.126;2022-09-24T16:28:03;98117.69;;;19.78;52.35
60820;BME280;46641;48.904;9.126;2022-09-24T16:32:54;98117.69;;;19.78;52.69
60820;BME280;46641;48.904;9.126;2022-09-24T16:37:44;98109.72;;;19.78;52.97
60820;BME280;46641;48.904;9.126;2022-09-24T16:42:34;98113.59;;;19.75;52.70
60820;BME280;46641;48.904;9.126;2022-09-24T16:47:25;98106.69;;;19.74;52.85
60820;BME280;46641;48.904;9.126;2022-09-24T16:57:09;98106.06;;;19.72;52.87
60820;BME280;46641;48.904;9.126;2022-09-24T17:01:59;98109.56;;;19.73;53.08
60820;BME280;46641;48.904;9.126;2022-09-24T17:06:53;98112.66;;;19.70;52.93
60820;BME280;46641;48.904;9.126;2022-09-24T17:11:44;98113.88;;;19.67;52.89
60820;BME280;46641;48.904;9.126;2022-09-24T17:16:35;98114.09;;;19.66;53.03
60820;BME280;46641;48.904;9.126;2022-09-24T17:21:26;98116.97;;;19.64;53.09
60820;BME280;46641;48.904;9.126;2022-09-24T17:26:19;98115.31;;;19.63;53.26
60820;BME280;46641;48.904;9.126;2022-09-24T17:31:16;98130.66;;;19.61;53.14
60820;BME280;46641;48.904;9.126;2022-09-24T17:36:09;98132.50;;;19.60;53.11
60820;BME280;46641;48.904;9.126;2022-09-24T17:41:02;98145.97;;;19.59;53.09
60820;BME280;46641;48.904;9.126;2022-09-24T17:46:05;98146.38;;;19.56;54.19
60820;BME280;46641;48.904;9.126;2022-09-24T17:50:58;98148.66;;;19.52;53.07
60820;BME280;46641;48.904;9.126;2022-09-24T17:55:50;98151.75;;;19.49;53.22
60820;BME280;46641;48.904;9.126;2022-09-24T18:00:40;98156.47;;;19.47;53.30
60820;BME280;46641;48.904;9.126;2022-09-24T18:05:31;98161.97;;;19.46;53.09
60820;BME280;46641;48.904;9.126;2022-09-24T18:10:21;98151.34;;;19.46;53.00
60820;BME280;46641;48.904;9.126;2022-09-24T18:15:11;98160.75;;;19.48;53.04
60820;BME280;46641;48.904;9.126;2022-09-24T18:20:02;98158.69;;;19.50;52.86
60820;BME280;46641;48.904;9.126;2022-09-24T18:24:52;98160.75;;;19.48;53.00
60820;BME280;46641;48.904;9.126;2022-09-24T18:29:42;98159.31;;;19.46;53.14
60820;BME280;46641;48.904;9.126;2022-09-24T18:34:33;98166.47;;;19.45;52.99
60820;BME280;46641;48.904;9.126;2022-09-24T18:39:23;98178.31;;;19.43;53.04
60820;BME280;46641;48.904;9.126;2022-09-24T18:44:14;98182.81;;;19.42;52.81
60820;BME280;46641;48.904;9.126;2022-09-24T18:49:04;98180.41;;;19.41;53.12
60820;BME280;46641;48.904;9.126;2022-09-24T18:54:00;98182.22;;;19.40;53.57
60820;BME280;46641;48.904;9.126;2022-09-24T18:58:59;98185.72;;;19.41;53.26
60820;BME280;46641;48.904;9.126;2022-09-24T19:03:50;98178.59;;;19.34;52.97
60820;BME280;46641;48.904;9.126;2022-09-24T19:08:40;98174.28;;;19.33;52.98
60820;BME280;46641;48.904;9.126;2022-09-24T19:13:30;98173.69;;;19.31;52.82
60820;BME280;46641;48.904;9.126;2022-09-24T19:18:21;98168.16;;;19.33;52.88
60820;BME280;46641;48.904;9.126;2022-09-24T19:23:11;98172.28;;;19.29;52.94
60820;BME280;46641;48.904;9.126;2022-09-24T19:28:04;98174.94;;;19.29;53.12
60820;BME280;46641;48.904;9.126;2022-09-24T19:32:55;98174.75;;;19.24;53.12
60820;BME280;46641;48.904;9.126;2022-09-24T19:37:47;98176.19;;;19.20;53.12
60820;BME280;46641;48.904;9.126;2022-09-24T19:42:37;98177.84;;;19.21;53.15
60820;BME280;46641;48.904;9.126;2022-09-24T19:47:28;98172.53;;;19.21;52.86
60820;BME280;46641;48.904;9.126;2022-09-24T19:52:18;98166.63;;;19.19;53.12
60820;BME280;46641;48.904;9.126;2022-09-24T19:57:09;98166.22;;;19.15;53.13
60820;BME280;46641;48.904;9.126;2022-09-24T20:02:01;98167.03;;;19.15;53.19
60820;BME280;46641;48.904;9.126;2022-09-24T20:06:51;98166.22;;;19.15;53.05
60820;BME280;46641;48.904;9.126;2022-09-24T20:11:43;98154.81;;;19.14;53.00
60820;BME280;46641;48.904;9.126;2022-09-24T20:16:33;98158.69;;;19.12;53.18
60820;BME280;46641;48.904;9.126;2022-09-24T20:21:25;98164.81;;;19.12;53.23
60820;BME280;46641;48.904;9.126;2022-09-24T20:26:16;98162.16;;;19.12;53.19
60820;BME280;46641;48.904;9.126;2022-09-24T20:31:25;98168.06;;;19.14;52.87
60820;BME280;46641;48.904;9.126;2022-09-24T20:36:16;98166.22;;;19.15;53.02
60820;BME280;46641;48.904;9.126;2022-09-24T20:41:07;98176.88;;;19.08;53.17
60820;BME280;46641;48.904;9.126;2022-09-24T20:45:59;98178.91;;;19.06;53.10
60820;BME280;46641;48.904;9.126;2022-09-24T20:50:50;98175.63;;;19.04;53.13
60820;BME280;46641;48.904;9.126;2022-09-24T20:55:40;98175.63;;;19.04;53.13
60820;BME280;46641;48.904;9.126;2022-09-24T21:00:30;98175.06;;;19.02;53.16
60820;BME280;46641;48.904;9.126;2022-09-24T21:05:24;98175.06;;;19.02;53.08
60820;BME280;46641;48.904;9.126;2022-09-24T21:10:17;98181.38;;;19.01;53.10
60820;BME280;46641;48.904;9.126;2022-09-24T21:15:09;98181.81;;;18.98;53.13
60820;BME280;46641;48.904;9.126;2022-09-24T21:20:00;98185.03;;;19.00;53.30
60820;BME280;46641;48.904;9.126;2022-09-24T21:24:51;98183.03;;;18.96;53.16
60820;BME280;46641;48.904;9.126;2022-09-24T21:29:41;98189.56;;;18.93;53.52
60820;BME280;46641;48.904;9.126;2022-09-24T21:34:32;98180.19;;;18.90;53.29
60820;BME280;46641;48.904;9.126;2022-09-24T21:39:23;98187.31;;;18.90;53.25
60820;BME280;46641;48.904;9.126;2022-09-24T21:44:13;98189.78;;;18.91;53.36
60820;BME280;46641;48.904;9.126;2022-09-24T21:49:03;98188.94;;;18.91;53.25
60820;BME280;46641;48.904;9.126;2022-09-24T21:53:58;98183.44;;;18.92;53.73
60820;BME280;46641;48.904;9.126;2022-09-24T21:58:51;98189.56;;;18.93;53.36
60820;BME280;46641;48.904;9.126;2022-09-24T22:03:42;98190.38;;;18.94;53.02
60820;BME280;46641;48.904;9.126;2022-09-24T22:08:34;98195.28;;;18.90;53.26
60820;BME280;46641;48.904;9.126;2022-09-24T22:13:24;98189.97;;;18.90;53.11
60820;BME280;46641;48.904;9.126;2022-09-24T22:18:14;98186.94;;;18.86;53.24
60820;BME280;46641;48.904;9.126;2022-09-24T22:23:05;98192.47;;;18.85;53.43
60820;BME280;46641;48.904;9.126;2022-09-24T22:27:55;98192.47;;;18.85;53.11
60820;BME280;46641;48.904;9.126;2022-09-24T22:32:45;98194.50;;;18.83;53.51
60820;BME280;46641;48.904;9.126;2022-09-24T22:37:36;98192.88;;;18.82;53.17
60820;BME280;46641;48.904;9.126;2022-09-24T22:42:27;98187.56;;;18.82;53.07
60820;BME280;46641;48.904;9.126;2022-09-24T22:47:17;98195.53;;;18.82;53.33
60820;BME280;46641;48.904;9.126;2022-09-24T22:52:07;98189.59;;;18.80;52.98
60820;BME280;46641;48.904;9.126;2022-09-24T22:56:57;98195.72;;;18.80;53.39
60820;BME280;46641;48.904;9.126;2022-09-24T23:01:48;98195.09;;;18.78;53.22
60820;BME280;46641;48.904;9.126;2022-09-24T23:06:38;98174.91;;;18.77;53.20
60820;BME280;46641;48.904;9.126;2022-09-24T23:11:30;98173.50;;;18.75;53.28
60820;BME280;46641;48.904;9.126;2022-09-24T23:16:24;98179.00;;;18.73;53.32
60820;BME280;46641;48.904;9.126;2022-09-24T23:21:17;98177.56;;;18.71;53.57
60820;BME280;46641;48.904;9.126;2022-09-24T23:26:17;98179.00;;;18.73;53.48
60820;BME280;46641;48.904;9.126;2022-09-24T23:31:10;98177.56;;;18.71;53.44
60820;BME280;46641;48.904;9.126;2022-09-24T23:36:02;98172.47;;;18.69;53.32
60820;BME280;46641;48.904;9.126;2022-09-24T23:40:52;98172.47;;;18.69;53.28
60820;BME280;46641;48.904;9.126;2022-09-24T23:45:43;98172.66;;;18.67;53.25
60820;BME280;46641;48.904;9.126;2022-09-24T23:50:34;98166.78;;;18.65;53.59
60820;BME280;46641;48.904;9.126;2022-09-24T23:55:24;98169.63;;;18.64;53.34
